»·PEaware :: AAL491 KDEN-KLAX

AAL491 :: KDEN-KLAX

FLIGHT INFORMATION

Flight Status: Arrived
Operator:
American Airlines
More flights by this operator :: More flights under this callsign
Pilot: Jim M. (18055)
Aircraft: BOEING 777-200
(B772)
More flights by this aircraft type
Origin: KDEN Denver Intl
United States
Destination: KLAX Los Angeles Intl
United States
More flights between these airports :: More routes between these airports
Route: +CONNR4 DBL CHESZ Q88 HAKMN ANJLL2
File this flight plan on PilotEdge
Remarks:
Altitude:
(Current/Filed)
36,000ft
Speed:
(Current/Filed)
450kts
Departed: 22-Apr-18 09:49 AM
Arrived: 22-Apr-18 11:38 AM
Distance/Time
Traveled:
747nm/1:49
Distance/Time
To Go:
Arrived

Flight Plot

Page will automatically refresh every two minutes.

Flight plan parsing failed; only flown route is shown


Map Options




Map Legend


Flown Route
Filed Route
Departure Airport
Arrival Airport
Navaid (VOR, NDB)
Fix

Horizontal Profiles

Position Reports

Time Latitude Longitude Heading Altitude Ground
Speed
22-Apr-18 08:53 39.854513 -104.674987 185 5444ft 0kts
22-Apr-18 08:54 39.854513 -104.674987 185 5444ft 0kts
22-Apr-18 08:55 39.854513 -104.674987 185 5444ft 0kts
22-Apr-18 08:56 39.854513 -104.674987 185 5444ft 0kts
22-Apr-18 08:57 39.854513 -104.674987 185 5444ft 0kts
22-Apr-18 08:58 39.854513 -104.674987 185 5444ft 0kts
22-Apr-18 08:59 39.854513 -104.674987 185 5444ft 0kts
22-Apr-18 09:00 39.854513 -104.674987 185 5444ft 0kts
22-Apr-18 09:01 39.854513 -104.674987 185 5444ft 0kts
22-Apr-18 09:02 39.854513 -104.674987 185 5444ft 0kts
22-Apr-18 09:03 39.854513 -104.674987 185 5444ft 0kts
22-Apr-18 09:04 39.854513 -104.674987 185 5444ft 0kts
22-Apr-18 09:05 39.854513 -104.674987 185 5444ft 0kts
22-Apr-18 09:06 39.854513 -104.674987 185 5444ft 0kts
22-Apr-18 09:07 39.854513 -104.674987 185 5444ft 0kts
22-Apr-18 09:08 39.854513 -104.674987 185 5444ft 0kts
22-Apr-18 09:09 39.854513 -104.674987 185 5444ft 0kts
22-Apr-18 09:10 39.854513 -104.674987 185 5444ft 0kts
22-Apr-18 09:11 39.854513 -104.674987 185 5444ft 0kts
22-Apr-18 09:12 39.854513 -104.674987 185 5444ft 0kts
22-Apr-18 09:13 39.854513 -104.674987 185 5444ft 0kts
22-Apr-18 09:14 39.854513 -104.674987 185 5444ft 0kts
22-Apr-18 09:15 39.854513 -104.674987 185 5444ft 0kts
22-Apr-18 09:16 39.854513 -104.674987 185 5444ft 0kts
22-Apr-18 09:17 39.854513 -104.674987 185 5444ft 0kts
22-Apr-18 09:18 39.854513 -104.674987 185 5444ft 0kts
22-Apr-18 09:19 39.854513 -104.674987 185 5444ft 0kts
22-Apr-18 09:20 39.854513 -104.674987 185 5444ft 0kts
22-Apr-18 09:21 39.854513 -104.674987 185 5444ft 0kts
22-Apr-18 09:22 39.854513 -104.674987 185 5444ft 0kts
22-Apr-18 09:23 39.854513 -104.674987 185 5444ft 0kts
22-Apr-18 09:24 39.854513 -104.674987 185 5444ft 0kts
22-Apr-18 09:25 39.854513 -104.674987 185 5444ft 0kts
22-Apr-18 09:26 39.854513 -104.674987 185 5444ft 0kts
22-Apr-18 09:27 39.854513 -104.674987 185 5444ft 0kts
22-Apr-18 09:28 39.854513 -104.674987 185 5444ft 0kts
22-Apr-18 09:29 39.854513 -104.674987 185 5444ft 0kts
22-Apr-18 09:30 39.854513 -104.674987 185 5444ft 0kts
22-Apr-18 09:31 39.854906 -104.674991 164 5444ft 2kts
22-Apr-18 09:32 39.855257 -104.675473 90 5444ft 1kts
22-Apr-18 09:33 39.855260 -104.675763 90 5444ft 0kts
22-Apr-18 09:34 39.855260 -104.675763 90 5444ft 0kts
22-Apr-18 09:35 39.855260 -104.675763 90 5444ft 0kts
22-Apr-18 09:36 39.855260 -104.675763 90 5444ft 0kts
22-Apr-18 09:37 39.855245 -104.673552 89 5444ft 11kts
22-Apr-18 09:38 39.855754 -104.670118 61 5444ft 8kts
22-Apr-18 09:39 39.856004 -104.667279 41 5444ft 7kts
22-Apr-18 09:40 39.856307 -104.666438 125 5444ft 0kts
22-Apr-18 09:41 39.856023 -104.665854 111 5444ft 5kts
22-Apr-18 09:42 39.855871 -104.663984 90 5444ft 8kts
22-Apr-18 09:43 39.857393 -104.662373 1 5444ft 9kts
22-Apr-18 09:44 39.859866 -104.662374 358 5444ft 8kts
22-Apr-18 09:45 39.860962 -104.662145 58 5444ft 0kts
22-Apr-18 09:46 39.861154 -104.660912 91 5444ft 5kts
22-Apr-18 09:47 39.859887 -104.660167 178 5444ft 33kts
22-Apr-18 09:48 39.820137 -104.660037 181 6698ft 188kts
22-Apr-18 09:49 39.769056 -104.701234 225 8710ft 271kts
22-Apr-18 09:50 39.755638 -104.801690 275 11567ft 296kts
22-Apr-18 09:51 39.758648 -104.914231 278 15120ft 346kts
22-Apr-18 09:52 39.776970 -105.046880 280 18543ft 390kts
22-Apr-18 09:53 39.789980 -105.193115 268 21801ft 425kts
22-Apr-18 09:54 39.766394 -105.345298 251 25171ft 443kts
22-Apr-18 09:55 39.732952 -105.502921 255 28443ft 459kts
22-Apr-18 09:56 39.699337 -105.665722 259 31350ft 470kts
22-Apr-18 09:57 39.680419 -105.828942 264 34722ft 452kts
22-Apr-18 09:58 39.663368 -105.990802 262 36445ft 451kts
22-Apr-18 09:59 39.645149 -106.150550 262 36423ft 448kts
22-Apr-18 10:00 39.625166 -106.309839 256 36400ft 450kts
22-Apr-18 10:01 39.579284 -106.461679 248 36365ft 452kts
22-Apr-18 10:02 39.531217 -106.611740 249 36362ft 451kts
22-Apr-18 10:03 39.482558 -106.761852 248 36357ft 451kts
22-Apr-18 10:04 39.433889 -106.911062 248 36359ft 450kts
22-Apr-18 10:05 39.381855 -107.058578 246 36373ft 451kts
22-Apr-18 10:06 39.329414 -107.206182 246 36414ft 451kts
22-Apr-18 10:07 39.277420 -107.353432 247 36442ft 451kts
22-Apr-18 10:08 39.225671 -107.500412 246 36410ft 451kts
22-Apr-18 10:09 39.173148 -107.647713 246 36374ft 451kts
22-Apr-18 10:10 39.120575 -107.794257 246 36298ft 451kts
22-Apr-18 10:11 39.067792 -107.940636 246 36266ft 451kts
22-Apr-18 10:12 39.014644 -108.087301 246 36261ft 452kts
22-Apr-18 10:13 38.961438 -108.233387 245 36257ft 452kts
22-Apr-18 10:14 38.907800 -108.379941 245 36251ft 452kts
22-Apr-18 10:15 38.854163 -108.525780 245 36248ft 452kts
22-Apr-18 10:16 38.800334 -108.671424 245 36238ft 452kts
22-Apr-18 10:17 38.746179 -108.817242 245 36241ft 453kts
22-Apr-18 10:18 38.691926 -108.962619 245 36241ft 453kts
22-Apr-18 10:19 38.637492 -109.107777 245 36236ft 453kts
22-Apr-18 10:20 38.582649 -109.253326 244 36229ft 454kts
22-Apr-18 10:21 38.527702 -109.398459 244 36220ft 455kts
22-Apr-18 10:22 38.472472 -109.543643 244 36209ft 456kts
22-Apr-18 10:23 38.416949 -109.689292 244 36210ft 455kts
22-Apr-18 10:24 38.361385 -109.834354 243 36215ft 456kts
22-Apr-18 10:25 38.305298 -109.979110 243 36223ft 456kts
22-Apr-18 10:26 38.247307 -110.123412 241 36230ft 457kts
22-Apr-18 10:27 38.187408 -110.265774 241 36235ft 457kts
22-Apr-18 10:28 38.127401 -110.408443 241 36237ft 456kts
22-Apr-18 10:29 38.068207 -110.550917 241 36238ft 457kts
22-Apr-18 10:30 38.008246 -110.693466 241 36235ft 457kts
22-Apr-18 10:31 37.947647 -110.836617 240 36224ft 463kts
22-Apr-18 10:32 37.886631 -110.980058 240 36222ft 464kts
22-Apr-18 10:33 37.825123 -111.124013 240 36220ft 464kts
22-Apr-18 10:34 37.763668 -111.267202 240 36216ft 464kts
22-Apr-18 10:35 37.702030 -111.410179 240 36277ft 464kts
22-Apr-18 10:36 37.640150 -111.553703 240 36267ft 464kts
22-Apr-18 10:37 37.578085 -111.696347 240 36278ft 464kts
22-Apr-18 10:38 37.515781 -111.838486 240 36288ft 464kts
22-Apr-18 10:39 37.442453 -111.972243 232 36290ft 464kts
22-Apr-18 10:40 37.365827 -112.102538 233 36285ft 464kts
22-Apr-18 10:41 37.288854 -112.233383 232 36267ft 465kts
22-Apr-18 10:42 37.212409 -112.363964 233 36253ft 465kts
22-Apr-18 10:43 37.135357 -112.494252 232 36240ft 466kts
22-Apr-18 10:44 37.057800 -112.624655 232 36230ft 466kts
22-Apr-18 10:45 36.980218 -112.754684 232 36227ft 467kts
22-Apr-18 10:46 36.902503 -112.884383 232 36222ft 466kts
22-Apr-18 10:47 36.824538 -113.014648 233 36221ft 467kts
22-Apr-18 10:48 36.746863 -113.144682 232 36204ft 468kts
22-Apr-18 10:49 36.668397 -113.274176 232 36190ft 469kts
22-Apr-18 10:50 36.590638 -113.405185 234 36179ft 470kts
22-Apr-18 10:51 36.515161 -113.538518 234 36172ft 471kts
22-Apr-18 10:52 36.439175 -113.671353 234 36138ft 473kts
22-Apr-18 10:53 36.363322 -113.804722 234 36136ft 474kts
22-Apr-18 10:54 36.286645 -113.938248 234 36109ft 475kts
22-Apr-18 10:55 36.210175 -114.071365 234 36082ft 475kts
22-Apr-18 10:56 36.133154 -114.203930 234 36068ft 475kts
22-Apr-18 10:57 36.053194 -114.334231 228 36063ft 475kts
22-Apr-18 10:58 35.963983 -114.454121 227 36059ft 474kts
22-Apr-18 10:59 35.875908 -114.575192 228 36049ft 474kts
22-Apr-18 11:00 35.788050 -114.696913 228 36040ft 474kts
22-Apr-18 11:01 35.699976 -114.817312 228 36031ft 473kts
22-Apr-18 11:02 35.611932 -114.937927 228 36038ft 473kts
22-Apr-18 11:03 35.524036 -115.057686 228 36034ft 472kts
22-Apr-18 11:04 35.434574 -115.175498 227 36029ft 472kts
22-Apr-18 11:05 35.344323 -115.292770 227 36029ft 472kts
22-Apr-18 11:06 35.254708 -115.409924 227 36035ft 472kts
22-Apr-18 11:07 35.164541 -115.526395 227 36041ft 472kts
22-Apr-18 11:08 35.073904 -115.642980 227 36056ft 472kts
22-Apr-18 11:09 34.983298 -115.758829 227 36061ft 472kts
22-Apr-18 11:10 34.892504 -115.874545 227 36068ft 473kts
22-Apr-18 11:11 34.801587 -115.991056 227 36076ft 474kts
22-Apr-18 11:12 34.713882 -116.102495 227 34979ft 449kts
22-Apr-18 11:13 34.627328 -116.212237 227 32793ft 448kts
22-Apr-18 11:14 34.541369 -116.320831 227 30595ft 444kts
22-Apr-18 11:15 34.456227 -116.427670 226 28381ft 436kts
22-Apr-18 11:16 34.387700 -116.545209 244 26257ft 421kts
22-Apr-18 11:17 34.337910 -116.668726 243 25031ft 390kts
22-Apr-18 11:18 34.291493 -116.784404 244 23357ft 378kts
22-Apr-18 11:19 34.245653 -116.897735 244 21580ft 371kts
22-Apr-18 11:20 34.203089 -117.009905 251 19758ft 365kts
22-Apr-18 11:21 34.172380 -117.126435 252 17842ft 362kts
22-Apr-18 11:22 34.141113 -117.240779 252 16009ft 356kts
22-Apr-18 11:23 34.110089 -117.352904 251 14262ft 349kts
22-Apr-18 11:24 34.081700 -117.464513 253 12507ft 345kts
22-Apr-18 11:25 34.048446 -117.569433 245 11243ft 324kts
22-Apr-18 11:26 34.013950 -117.663132 247 10191ft 294kts
22-Apr-18 11:27 33.998996 -117.757213 266 9077ft 282kts
22-Apr-18 11:28 33.990747 -117.848563 264 7822ft 267kts
22-Apr-18 11:29 33.982386 -117.940178 264 6018ft 283kts
22-Apr-18 11:30 33.973271 -118.031598 263 5007ft 252kts
22-Apr-18 11:31 33.965496 -118.107762 263 4552ft 225kts
22-Apr-18 11:32 33.958252 -118.178608 262 3432ft 199kts
22-Apr-18 11:33 33.951766 -118.242010 262 2407ft 186kts
22-Apr-18 11:34 33.946206 -118.296363 261 1540ft 145kts
22-Apr-18 11:35 33.941511 -118.342255 261 800ft 133kts
22-Apr-18 11:36 33.936961 -118.386901 259 147ft 132kts
22-Apr-18 11:37 33.935927 -118.403023 297 140ft 17kts
22-Apr-18 11:38 33.935990 -118.408221 298 140ft 13kts
22-Apr-18 11:39 33.938037 -118.407468 81 140ft 10kts
22-Apr-18 11:40 33.938394 -118.403736 82 140ft 15kts
22-Apr-18 11:41 33.939389 -118.400568 23 140ft 6kts
22-Apr-18 11:42 33.940249 -118.399980 31 140ft 3kts
22-Apr-18 11:43 33.940279 -118.399958 31 140ft 0kts
22-Apr-18 11:44 33.940279 -118.399958 31 140ft 0kts

Navigation Log

Ident Type
Flight plan parsing failed, navigation log unavailable